createdAt,value
2019-03-20T00:05:56.049Z,100759.89
2019-03-20T00:16:00.958Z,100768.63
2019-03-20T00:26:06.038Z,100765.67
2019-03-20T00:36:11.052Z,100770.09
2019-03-20T00:46:15.923Z,100768.98
2019-03-20T00:56:20.812Z,100769.53
2019-03-20T01:06:25.719Z,100785.48
2019-03-20T01:16:30.598Z,100779.41
2019-03-20T01:26:35.489Z,100781.16
2019-03-20T01:36:40.503Z,100785.06
2019-03-20T01:46:45.444Z,100786.95
2019-03-20T01:56:50.463Z,100794.03
2019-03-20T02:06:55.358Z,100802.57
2019-03-20T02:17:00.243Z,100807.80
2019-03-20T02:27:05.550Z,100806.28
2019-03-20T02:37:11.576Z,100815.23
2019-03-20T02:47:16.581Z,100833.27
2019-03-20T02:57:21.653Z,100834.47
2019-03-20T03:07:26.655Z,100841.41
2019-03-20T03:17:31.543Z,100847.97
2019-03-20T03:27:36.647Z,100851.45
2019-03-20T03:37:41.767Z,100854.90
2019-03-20T03:47:47.357Z,100863.24
2019-03-20T03:57:53.367Z,100861.81
2019-03-20T04:07:59.394Z,100871.63
2019-03-20T04:18:05.256Z,100875.40
2019-03-20T04:28:10.324Z,100886.89
2019-03-20T04:38:15.282Z,100895.78
2019-03-20T04:48:20.366Z,100900.72
2019-03-20T04:58:25.366Z,100911.02
2019-03-20T05:08:30.377Z,100917.88
2019-03-20T05:18:35.358Z,100925.69
2019-03-20T05:28:40.465Z,100931.70
2019-03-20T05:38:45.454Z,100935.85
2019-03-20T05:48:52.079Z,100939.46
2019-03-20T05:58:57.070Z,100947.88
2019-03-20T06:09:02.064Z,100963.35
2019-03-20T06:19:07.169Z,100967.72
2019-03-20T06:29:12.091Z,100980.91
2019-03-20T06:39:17.153Z,100985.13
2019-03-20T06:49:22.147Z,100996.95
2019-03-20T06:59:32.973Z,100999.45
2019-03-20T07:09:43.709Z,101017.16
2019-03-20T07:19:49.714Z,101031.91
2019-03-20T07:29:54.609Z,101023.74
2019-03-20T07:39:59.585Z,101018.56
2019-03-20T07:50:07.395Z,101027.25
2019-03-20T08:00:14.157Z,101030.98
2019-03-20T08:10:20.448Z,101027.40
2019-03-20T08:20:28.740Z,101020.59
2019-03-20T08:30:33.685Z,101030.05
2019-03-20T08:40:38.675Z,101036.66
2019-03-20T08:50:43.693Z,101031.69
2019-03-20T09:00:48.782Z,101033.47
2019-03-20T09:10:56.843Z,101043.97
2019-03-20T09:21:01.819Z,101042.71
2019-03-20T09:31:06.753Z,101047.03
2019-03-20T09:41:11.710Z,101046.42
2019-03-20T09:51:16.718Z,101053.13
2019-03-20T10:01:21.692Z,101047.78
2019-03-20T10:11:26.715Z,101057.73
2019-03-20T10:21:31.638Z,101058.23
2019-03-20T10:31:36.886Z,101074.72
2019-03-20T10:41:42.116Z,101079.96
2019-03-20T10:51:47.303Z,101063.64
2019-03-20T11:01:52.375Z,101085.96
2019-03-20T11:11:57.394Z,101091.22
2019-03-20T11:22:02.372Z,101082.96
2019-03-20T11:32:07.477Z,101079.06
2019-03-20T11:42:12.464Z,101059.77
2019-03-20T11:52:17.454Z,101041.59
2019-03-20T12:02:28.117Z,101038.50
2019-03-20T12:12:29.278Z,101037.66
2019-03-20T12:22:34.391Z,101013.39
2019-03-20T12:32:39.561Z,101014.65
2019-03-20T12:42:45.586Z,101011.61
2019-03-20T12:52:50.604Z,101012.25
2019-03-20T13:02:56.704Z,100998.53
2019-03-20T13:13:01.734Z,100986.06
2019-03-20T13:23:16.025Z,100989.08
2019-03-20T13:33:25.575Z,100998.88
2019-03-20T13:43:27.751Z,100987.40
2019-03-20T13:53:35.315Z,100977.81
2019-03-20T14:03:41.009Z,100977.81
2019-03-20T14:13:46.091Z,100965.18
2019-03-20T14:23:51.078Z,100961.12
2019-03-20T14:33:57.111Z,100958.13
2019-03-20T14:44:07.992Z,100961.19
2019-03-20T14:54:16.338Z,100961.36
2019-03-20T15:04:21.845Z,100956.77
2019-03-20T15:14:30.774Z,100950.09
2019-03-20T15:24:37.932Z,100951.07
2019-03-20T15:34:44.090Z,100946.95
2019-03-20T15:44:49.266Z,100943.59
2019-03-20T15:54:55.535Z,100960.75
2019-03-20T16:05:00.608Z,100979.53
2019-03-20T16:15:09.005Z,100981.21
2019-03-20T16:25:15.995Z,100978.45
2019-03-20T16:35:21.511Z,100979.13
2019-03-20T16:45:28.475Z,100980.84
2019-03-20T16:55:33.852Z,100971.03
2019-03-20T17:05:39.247Z,100988.66
2019-03-20T17:15:45.145Z,100992.31
2019-03-20T17:25:50.414Z,101008.59
2019-03-20T17:35:55.614Z,101022.16
2019-03-20T17:46:00.901Z,101024.13
2019-03-20T17:56:06.245Z,101024.85
2019-03-20T18:06:11.316Z,101036.27
2019-03-20T18:16:16.754Z,101040.94
2019-03-20T18:26:21.969Z,101046.08
2019-03-20T18:36:27.308Z,101059.15
2019-03-20T18:46:33.294Z,101070.34
2019-03-20T18:56:38.451Z,101076.36
2019-03-20T19:06:45.822Z,101091.58
2019-03-20T19:16:51.282Z,101081.65
2019-03-20T19:26:56.523Z,101091.94
2019-03-20T19:37:01.911Z,101084.61
2019-03-20T19:47:07.447Z,101073.59
2019-03-20T19:57:12.856Z,101060.90
2019-03-20T20:07:18.219Z,101060.96
2019-03-20T20:17:24.160Z,101052.38
2019-03-20T20:27:30.081Z,101042.00
2019-03-20T20:37:35.399Z,101055.88
2019-03-20T20:47:42.428Z,101061.81
2019-03-20T20:57:47.552Z,101065.02
2019-03-20T21:07:52.847Z,101065.73
2019-03-20T21:18:15.805Z,101061.02
2019-03-20T21:28:52.581Z,101067.27
2019-03-20T21:38:59.070Z,101081.91
2019-03-20T21:49:05.158Z,101088.39
2019-03-20T21:59:39.183Z,101078.14
2019-03-20T22:09:55.929Z,101076.58
2019-03-20T22:20:09.833Z,101077.34
2019-03-20T22:30:14.820Z,101074.03
2019-03-20T22:40:28.724Z,101078.61
2019-03-20T22:50:45.275Z,101081.53
2019-03-20T23:00:55.828Z,101108.77
2019-03-20T23:11:02.652Z,101092.55
2019-03-20T23:21:08.971Z,101082.92
2019-03-20T23:31:15.148Z,101081.66
2019-03-20T23:41:20.416Z,101054.25
2019-03-20T23:51:31.017Z,101056.15
